sensor_id;sensor_type;location;lat;lon;timestamp;P1;durP1;ratioP1;P2;durP2;ratioP2
76640;SDS011;65538;50.798;6.064;2023-11-19T00:02:08;1.97;;;1.00;;
76640;SDS011;65538;50.798;6.064;2023-11-19T00:04:36;2.90;;;1.00;;
76640;SDS011;65538;50.798;6.064;2023-11-19T00:07:01;2.28;;;0.93;;
76640;SDS011;65538;50.798;6.064;2023-11-19T00:09:28;3.35;;;1.00;;
76640;SDS011;65538;50.798;6.064;2023-11-19T00:12:03;1.73;;;1.00;;
76640;SDS011;65538;50.798;6.064;2023-11-19T00:14:29;4.53;;;1.15;;
76640;SDS011;65538;50.798;6.064;2023-11-19T00:16:54;2.55;;;1.10;;
76640;SDS011;65538;50.798;6.064;2023-11-19T00:19:19;1.80;;;0.70;;
76640;SDS011;65538;50.798;6.064;2023-11-19T00:21:45;2.70;;;1.57;;
76640;SDS011;65538;50.798;6.064;2023-11-19T00:24:11;2.65;;;1.10;;
76640;SDS011;65538;50.798;6.064;2023-11-19T00:26:37;3.00;;;1.60;;
76640;SDS011;65538;50.798;6.064;2023-11-19T00:29:02;2.47;;;1.37;;
76640;SDS011;65538;50.798;6.064;2023-11-19T00:31:27;4.00;;;1.77;;
76640;SDS011;65538;50.798;6.064;2023-11-19T00:33:53;3.65;;;1.35;;
76640;SDS011;65538;50.798;6.064;2023-11-19T00:36:18;3.50;;;1.70;;
76640;SDS011;65538;50.798;6.064;2023-11-19T00:38:43;2.57;;;1.40;;
76640;SDS011;65538;50.798;6.064;2023-11-19T00:41:08;2.97;;;1.97;;
76640;SDS011;65538;50.798;6.064;2023-11-19T00:43:33;3.03;;;2.00;;
76640;SDS011;65538;50.798;6.064;2023-11-19T00:45:59;3.45;;;1.65;;
76640;SDS011;65538;50.798;6.064;2023-11-19T00:48:24;2.93;;;1.50;;
76640;SDS011;65538;50.798;6.064;2023-11-19T00:50:50;4.50;;;2.08;;
76640;SDS011;65538;50.798;6.064;2023-11-19T00:53:15;3.43;;;1.63;;
76640;SDS011;65538;50.798;6.064;2023-11-19T00:55:40;3.27;;;1.63;;
76640;SDS011;65538;50.798;6.064;2023-11-19T00:58:05;4.57;;;2.30;;
76640;SDS011;65538;50.798;6.064;2023-11-19T01:00:31;8.90;;;2.37;;
76640;SDS011;65538;50.798;6.064;2023-11-19T01:02:57;3.45;;;1.90;;
76640;SDS011;65538;50.798;6.064;2023-11-19T01:05:22;4.10;;;1.53;;
76640;SDS011;65538;50.798;6.064;2023-11-19T01:07:48;5.57;;;2.00;;
76640;SDS011;65538;50.798;6.064;2023-11-19T01:10:13;5.72;;;2.38;;
76640;SDS011;65538;50.798;6.064;2023-11-19T01:12:40;3.15;;;1.70;;
76640;SDS011;65538;50.798;6.064;2023-11-19T01:15:05;5.10;;;2.43;;
76640;SDS011;65538;50.798;6.064;2023-11-19T01:17:31;3.72;;;1.98;;
76640;SDS011;65538;50.798;6.064;2023-11-19T01:19:56;7.88;;;1.70;;
76640;SDS011;65538;50.798;6.064;2023-11-19T01:22:22;4.13;;;2.00;;
76640;SDS011;65538;50.798;6.064;2023-11-19T01:24:48;5.43;;;2.50;;
76640;SDS011;65538;50.798;6.064;2023-11-19T01:27:13;4.73;;;1.73;;
76640;SDS011;65538;50.798;6.064;2023-11-19T01:29:38;3.60;;;1.85;;
76640;SDS011;65538;50.798;6.064;2023-11-19T01:32:04;4.43;;;2.15;;
76640;SDS011;65538;50.798;6.064;2023-11-19T01:34:30;10.10;;;2.70;;
76640;SDS011;65538;50.798;6.064;2023-11-19T01:36:55;6.17;;;2.57;;
76640;SDS011;65538;50.798;6.064;2023-11-19T01:39:20;3.90;;;1.93;;
76640;SDS011;65538;50.798;6.064;2023-11-19T01:41:46;8.20;;;1.85;;
76640;SDS011;65538;50.798;6.064;2023-11-19T01:44:11;10.63;;;2.27;;
76640;SDS011;65538;50.798;6.064;2023-11-19T01:46:43;7.40;;;2.50;;
76640;SDS011;65538;50.798;6.064;2023-11-19T01:49:08;6.60;;;2.10;;
76640;SDS011;65538;50.798;6.064;2023-11-19T01:51:34;5.80;;;2.33;;
76640;SDS011;65538;50.798;6.064;2023-11-19T01:53:59;7.28;;;2.65;;
76640;SDS011;65538;50.798;6.064;2023-11-19T01:56:25;5.50;;;2.47;;
76640;SDS011;65538;50.798;6.064;2023-11-19T01:58:50;6.75;;;2.50;;
76640;SDS011;65538;50.798;6.064;2023-11-19T02:01:16;7.55;;;2.05;;
76640;SDS011;65538;50.798;6.064;2023-11-19T02:03:42;9.37;;;2.00;;
76640;SDS011;65538;50.798;6.064;2023-11-19T02:06:07;8.25;;;1.45;;
76640;SDS011;65538;50.798;6.064;2023-11-19T02:08:35;6.95;;;1.75;;
76640;SDS011;65538;50.798;6.064;2023-11-19T02:11:00;4.70;;;1.73;;
76640;SDS011;65538;50.798;6.064;2023-11-19T02:13:25;8.67;;;2.10;;
76640;SDS011;65538;50.798;6.064;2023-11-19T02:15:51;10.57;;;2.65;;
76640;SDS011;65538;50.798;6.064;2023-11-19T02:18:23;7.10;;;2.10;;
76640;SDS011;65538;50.798;6.064;2023-11-19T02:20:49;7.20;;;2.33;;
76640;SDS011;65538;50.798;6.064;2023-11-19T02:23:15;19.40;;;2.58;;
76640;SDS011;65538;50.798;6.064;2023-11-19T02:25:40;6.35;;;1.35;;
76640;SDS011;65538;50.798;6.064;2023-11-19T02:28:06;9.73;;;2.13;;
76640;SDS011;65538;50.798;6.064;2023-11-19T02:30:32;6.70;;;1.38;;
76640;SDS011;65538;50.798;6.064;2023-11-19T02:32:57;5.07;;;1.70;;
76640;SDS011;65538;50.798;6.064;2023-11-19T02:35:27;8.85;;;1.92;;
76640;SDS011;65538;50.798;6.064;2023-11-19T02:37:52;10.30;;;2.47;;
76640;SDS011;65538;50.798;6.064;2023-11-19T02:40:17;11.00;;;2.22;;
76640;SDS011;65538;50.798;6.064;2023-11-19T02:42:43;9.45;;;2.17;;
76640;SDS011;65538;50.798;6.064;2023-11-19T02:45:09;13.35;;;2.83;;
76640;SDS011;65538;50.798;6.064;2023-11-19T02:47:39;7.97;;;2.35;;
76640;SDS011;65538;50.798;6.064;2023-11-19T02:50:04;9.60;;;1.97;;
76640;SDS011;65538;50.798;6.064;2023-11-19T02:52:31;10.00;;;2.22;;
76640;SDS011;65538;50.798;6.064;2023-11-19T02:55:02;8.77;;;2.83;;
76640;SDS011;65538;50.798;6.064;2023-11-19T02:57:30;10.55;;;3.03;;
76640;SDS011;65538;50.798;6.064;2023-11-19T02:59:55;10.73;;;1.83;;
76640;SDS011;65538;50.798;6.064;2023-11-19T03:02:21;11.90;;;2.67;;
76640;SDS011;65538;50.798;6.064;2023-11-19T03:04:47;6.50;;;1.92;;
76640;SDS011;65538;50.798;6.064;2023-11-19T03:07:12;6.27;;;1.90;;
76640;SDS011;65538;50.798;6.064;2023-11-19T03:09:38;7.65;;;2.03;;
76640;SDS011;65538;50.798;6.064;2023-11-19T03:12:05;9.18;;;2.38;;
76640;SDS011;65538;50.798;6.064;2023-11-19T03:14:32;17.10;;;2.05;;
76640;SDS011;65538;50.798;6.064;2023-11-19T03:16:59;9.27;;;2.13;;
76640;SDS011;65538;50.798;6.064;2023-11-19T03:19:24;5.97;;;2.40;;
76640;SDS011;65538;50.798;6.064;2023-11-19T03:21:49;17.00;;;2.77;;
76640;SDS011;65538;50.798;6.064;2023-11-19T03:24:15;10.13;;;2.83;;
76640;SDS011;65538;50.798;6.064;2023-11-19T03:26:40;17.17;;;3.05;;
76640;SDS011;65538;50.798;6.064;2023-11-19T03:29:07;9.05;;;1.88;;
76640;SDS011;65538;50.798;6.064;2023-11-19T03:31:33;15.10;;;2.92;;
76640;SDS011;65538;50.798;6.064;2023-11-19T03:33:58;12.60;;;2.53;;
76640;SDS011;65538;50.798;6.064;2023-11-19T03:36:23;19.97;;;4.10;;
76640;SDS011;65538;50.798;6.064;2023-11-19T03:38:48;5.30;;;2.50;;
76640;SDS011;65538;50.798;6.064;2023-11-19T03:41:14;13.73;;;2.70;;
76640;SDS011;65538;50.798;6.064;2023-11-19T03:43:39;11.13;;;3.25;;
76640;SDS011;65538;50.798;6.064;2023-11-19T03:46:04;13.18;;;3.63;;
76640;SDS011;65538;50.798;6.064;2023-11-19T03:48:30;13.20;;;2.65;;
76640;SDS011;65538;50.798;6.064;2023-11-19T03:50:55;14.32;;;2.90;;
76640;SDS011;65538;50.798;6.064;2023-11-19T03:53:20;14.60;;;3.03;;
76640;SDS011;65538;50.798;6.064;2023-11-19T03:55:46;7.10;;;2.40;;
76640;SDS011;65538;50.798;6.064;2023-11-19T03:58:11;10.03;;;3.27;;
76640;SDS011;65538;50.798;6.064;2023-11-19T04:00:37;11.75;;;2.72;;
76640;SDS011;65538;50.798;6.064;2023-11-19T04:03:02;14.30;;;2.87;;
76640;SDS011;65538;50.798;6.064;2023-11-19T04:05:28;14.52;;;3.05;;
76640;SDS011;65538;50.798;6.064;2023-11-19T04:07:53;11.90;;;3.10;;
76640;SDS011;65538;50.798;6.064;2023-11-19T04:10:18;9.23;;;1.90;;
76640;SDS011;65538;50.798;6.064;2023-11-19T04:12:43;16.37;;;2.97;;
76640;SDS011;65538;50.798;6.064;2023-11-19T04:15:09;10.70;;;2.37;;
76640;SDS011;65538;50.798;6.064;2023-11-19T04:17:34;14.37;;;2.33;;
76640;SDS011;65538;50.798;6.064;2023-11-19T04:19:59;17.93;;;3.10;;
76640;SDS011;65538;50.798;6.064;2023-11-19T04:22:24;14.38;;;3.10;;
76640;SDS011;65538;50.798;6.064;2023-11-19T04:24:50;20.83;;;3.63;;
76640;SDS011;65538;50.798;6.064;2023-11-19T04:27:15;10.40;;;2.30;;
76640;SDS011;65538;50.798;6.064;2023-11-19T04:29:40;12.83;;;3.23;;
76640;SDS011;65538;50.798;6.064;2023-11-19T04:32:05;13.30;;;2.63;;
76640;SDS011;65538;50.798;6.064;2023-11-19T04:34:31;15.52;;;2.85;;
76640;SDS011;65538;50.798;6.064;2023-11-19T04:36:56;7.43;;;2.27;;
76640;SDS011;65538;50.798;6.064;2023-11-19T04:39:21;11.33;;;2.30;;
76640;SDS011;65538;50.798;6.064;2023-11-19T04:41:51;15.43;;;2.63;;
76640;SDS011;65538;50.798;6.064;2023-11-19T04:44:18;13.60;;;2.28;;
76640;SDS011;65538;50.798;6.064;2023-11-19T04:46:44;9.83;;;2.10;;
76640;SDS011;65538;50.798;6.064;2023-11-19T04:49:09;14.00;;;2.83;;
76640;SDS011;65538;50.798;6.064;2023-11-19T04:51:39;19.25;;;2.60;;
76640;SDS011;65538;50.798;6.064;2023-11-19T04:54:05;8.10;;;1.73;;
76640;SDS011;65538;50.798;6.064;2023-11-19T04:56:30;27.50;;;3.50;;
76640;SDS011;65538;50.798;6.064;2023-11-19T04:58:55;13.20;;;2.87;;
76640;SDS011;65538;50.798;6.064;2023-11-19T05:01:20;17.33;;;3.07;;
76640;SDS011;65538;50.798;6.064;2023-11-19T05:03:45;11.87;;;2.47;;
76640;SDS011;65538;50.798;6.064;2023-11-19T05:06:11;17.02;;;3.63;;
76640;SDS011;65538;50.798;6.064;2023-11-19T05:08:36;14.13;;;3.03;;
76640;SDS011;65538;50.798;6.064;2023-11-19T05:11:02;16.00;;;2.78;;
76640;SDS011;65538;50.798;6.064;2023-11-19T05:13:27;21.67;;;3.03;;
76640;SDS011;65538;50.798;6.064;2023-11-19T05:15:52;8.97;;;1.97;;
76640;SDS011;65538;50.798;6.064;2023-11-19T05:18:17;10.43;;;1.93;;
76640;SDS011;65538;50.798;6.064;2023-11-19T05:20:43;14.73;;;3.22;;
76640;SDS011;65538;50.798;6.064;2023-11-19T05:23:08;14.27;;;2.53;;
76640;SDS011;65538;50.798;6.064;2023-11-19T05:25:34;14.33;;;3.43;;
76640;SDS011;65538;50.798;6.064;2023-11-19T05:27:59;10.13;;;2.37;;
76640;SDS011;65538;50.798;6.064;2023-11-19T05:30:24;19.03;;;3.70;;
76640;SDS011;65538;50.798;6.064;2023-11-19T05:32:49;16.10;;;2.40;;
76640;SDS011;65538;50.798;6.064;2023-11-19T05:35:15;13.32;;;2.58;;
76640;SDS011;65538;50.798;6.064;2023-11-19T05:37:40;18.52;;;3.65;;
76640;SDS011;65538;50.798;6.064;2023-11-19T05:40:06;15.30;;;2.83;;
76640;SDS011;65538;50.798;6.064;2023-11-19T05:42:39;20.67;;;3.80;;
76640;SDS011;65538;50.798;6.064;2023-11-19T05:45:04;19.23;;;3.75;;
76640;SDS011;65538;50.798;6.064;2023-11-19T05:47:29;16.98;;;3.33;;
76640;SDS011;65538;50.798;6.064;2023-11-19T05:49:55;10.27;;;2.77;;
76640;SDS011;65538;50.798;6.064;2023-11-19T05:52:20;18.00;;;2.80;;
76640;SDS011;65538;50.798;6.064;2023-11-19T05:54:47;12.73;;;2.97;;
76640;SDS011;65538;50.798;6.064;2023-11-19T05:57:16;13.38;;;2.65;;
76640;SDS011;65538;50.798;6.064;2023-11-19T05:59:45;20.25;;;3.90;;
76640;SDS011;65538;50.798;6.064;2023-11-19T06:02:10;16.85;;;2.92;;
76640;SDS011;65538;50.798;6.064;2023-11-19T06:04:35;12.90;;;2.78;;
76640;SDS011;65538;50.798;6.064;2023-11-19T06:07:01;11.00;;;2.47;;
76640;SDS011;65538;50.798;6.064;2023-11-19T06:09:26;9.83;;;2.73;;
76640;SDS011;65538;50.798;6.064;2023-11-19T06:11:51;10.63;;;2.27;;
76640;SDS011;65538;50.798;6.064;2023-11-19T06:14:17;14.10;;;3.30;;
76640;SDS011;65538;50.798;6.064;2023-11-19T06:16:42;13.07;;;2.35;;
76640;SDS011;65538;50.798;6.064;2023-11-19T06:19:07;24.57;;;2.37;;
76640;SDS011;65538;50.798;6.064;2023-11-19T06:21:33;9.23;;;2.10;;
76640;SDS011;65538;50.798;6.064;2023-11-19T06:23:58;17.25;;;3.22;;
76640;SDS011;65538;50.798;6.064;2023-11-19T06:26:24;11.50;;;2.22;;
76640;SDS011;65538;50.798;6.064;2023-11-19T06:28:49;17.20;;;3.20;;
76640;SDS011;65538;50.798;6.064;2023-11-19T06:31:14;13.47;;;2.77;;
76640;SDS011;65538;50.798;6.064;2023-11-19T06:33:41;16.27;;;2.50;;
76640;SDS011;65538;50.798;6.064;2023-11-19T06:36:06;17.00;;;2.80;;
76640;SDS011;65538;50.798;6.064;2023-11-19T06:38:32;16.38;;;2.75;;
76640;SDS011;65538;50.798;6.064;2023-11-19T06:40:58;16.70;;;3.13;;
76640;SDS011;65538;50.798;6.064;2023-11-19T06:43:23;11.10;;;2.37;;
76640;SDS011;65538;50.798;6.064;2023-11-19T06:45:48;21.07;;;2.87;;
76640;SDS011;65538;50.798;6.064;2023-11-19T06:48:13;18.73;;;2.93;;
76640;SDS011;65538;50.798;6.064;2023-11-19T06:50:39;20.93;;;3.07;;
76640;SDS011;65538;50.798;6.064;2023-11-19T06:53:04;11.00;;;2.53;;
76640;SDS011;65538;50.798;6.064;2023-11-19T06:55:31;9.93;;;2.63;;
76640;SDS011;65538;50.798;6.064;2023-11-19T06:57:57;13.90;;;3.50;;
76640;SDS011;65538;50.798;6.064;2023-11-19T07:00:22;12.67;;;2.17;;
76640;SDS011;65538;50.798;6.064;2023-11-19T07:02:47;20.87;;;3.37;;
76640;SDS011;65538;50.798;6.064;2023-11-19T07:05:12;15.07;;;2.43;;
76640;SDS011;65538;50.798;6.064;2023-11-19T07:07:38;17.88;;;2.65;;
76640;SDS011;65538;50.798;6.064;2023-11-19T07:10:03;18.00;;;4.03;;
76640;SDS011;65538;50.798;6.064;2023-11-19T07:12:29;13.77;;;2.53;;
76640;SDS011;65538;50.798;6.064;2023-11-19T07:14:55;15.73;;;3.10;;
76640;SDS011;65538;50.798;6.064;2023-11-19T07:17:20;19.27;;;3.25;;
76640;SDS011;65538;50.798;6.064;2023-11-19T07:19:46;14.17;;;3.77;;
76640;SDS011;65538;50.798;6.064;2023-11-19T07:22:11;12.00;;;3.08;;
76640;SDS011;65538;50.798;6.064;2023-11-19T07:24:38;19.07;;;3.27;;
76640;SDS011;65538;50.798;6.064;2023-11-19T07:27:04;28.50;;;5.10;;
76640;SDS011;65538;50.798;6.064;2023-11-19T07:29:29;18.40;;;3.77;;
76640;SDS011;65538;50.798;6.064;2023-11-19T07:31:54;15.13;;;3.30;;
76640;SDS011;65538;50.798;6.064;2023-11-19T07:34:20;23.48;;;2.72;;
76640;SDS011;65538;50.798;6.064;2023-11-19T07:36:46;20.58;;;3.10;;
76640;SDS011;65538;50.798;6.064;2023-11-19T07:39:11;17.60;;;2.70;;
76640;SDS011;65538;50.798;6.064;2023-11-19T07:41:36;18.63;;;3.00;;
76640;SDS011;65538;50.798;6.064;2023-11-19T07:44:01;23.97;;;4.30;;
76640;SDS011;65538;50.798;6.064;2023-11-19T07:46:27;16.20;;;3.07;;
76640;SDS011;65538;50.798;6.064;2023-11-19T07:48:52;21.10;;;4.63;;
76640;SDS011;65538;50.798;6.064;2023-11-19T07:51:17;19.35;;;2.95;;
76640;SDS011;65538;50.798;6.064;2023-11-19T07:53:42;24.20;;;4.50;;
76640;SDS011;65538;50.798;6.064;2023-11-19T07:56:08;19.60;;;2.67;;
76640;SDS011;65538;50.798;6.064;2023-11-19T07:58:33;21.03;;;3.57;;
76640;SDS011;65538;50.798;6.064;2023-11-19T08:00:58;14.10;;;2.83;;
76640;SDS011;65538;50.798;6.064;2023-11-19T08:03:23;15.90;;;3.03;;
76640;SDS011;65538;50.798;6.064;2023-11-19T08:05:48;13.93;;;2.80;;
76640;SDS011;65538;50.798;6.064;2023-11-19T08:08:14;16.60;;;2.50;;
76640;SDS011;65538;50.798;6.064;2023-11-19T08:10:40;13.50;;;2.90;;
76640;SDS011;65538;50.798;6.064;2023-11-19T08:13:05;15.45;;;2.95;;
76640;SDS011;65538;50.798;6.064;2023-11-19T08:15:30;18.80;;;3.03;;
76640;SDS011;65538;50.798;6.064;2023-11-19T08:17:59;19.37;;;3.37;;
76640;SDS011;65538;50.798;6.064;2023-11-19T08:20:27;21.13;;;3.35;;
76640;SDS011;65538;50.798;6.064;2023-11-19T08:22:52;18.63;;;3.13;;
76640;SDS011;65538;50.798;6.064;2023-11-19T08:25:21;12.25;;;3.00;;
76640;SDS011;65538;50.798;6.064;2023-11-19T08:27:55;15.00;;;3.00;;
76640;SDS011;65538;50.798;6.064;2023-11-19T08:30:23;16.73;;;2.65;;
76640;SDS011;65538;50.798;6.064;2023-11-19T08:32:48;27.50;;;3.70;;
76640;SDS011;65538;50.798;6.064;2023-11-19T08:35:13;21.13;;;3.83;;
76640;SDS011;65538;50.798;6.064;2023-11-19T08:37:38;14.43;;;3.10;;
76640;SDS011;65538;50.798;6.064;2023-11-19T08:40:04;13.73;;;3.17;;
76640;SDS011;65538;50.798;6.064;2023-11-19T08:42:29;18.85;;;3.58;;
76640;SDS011;65538;50.798;6.064;2023-11-19T08:44:55;23.27;;;4.85;;
76640;SDS011;65538;50.798;6.064;2023-11-19T08:47:20;26.17;;;4.50;;
76640;SDS011;65538;50.798;6.064;2023-11-19T08:49:47;18.05;;;2.22;;
76640;SDS011;65538;50.798;6.064;2023-11-19T08:52:12;25.95;;;4.03;;
76640;SDS011;65538;50.798;6.064;2023-11-19T08:54:38;24.53;;;3.70;;
76640;SDS011;65538;50.798;6.064;2023-11-19T08:57:03;22.90;;;3.27;;
76640;SDS011;65538;50.798;6.064;2023-11-19T08:59:29;20.45;;;3.55;;
76640;SDS011;65538;50.798;6.064;2023-11-19T09:01:54;19.75;;;3.08;;
76640;SDS011;65538;50.798;6.064;2023-11-19T09:04:19;23.08;;;3.60;;
76640;SDS011;65538;50.798;6.064;2023-11-19T09:06:47;17.48;;;3.67;;
76640;SDS011;65538;50.798;6.064;2023-11-19T09:09:12;28.37;;;3.37;;
76640;SDS011;65538;50.798;6.064;2023-11-19T09:11:37;18.90;;;3.27;;
76640;SDS011;65538;50.798;6.064;2023-11-19T09:14:03;19.57;;;3.33;;
76640;SDS011;65538;50.798;6.064;2023-11-19T09:16:32;19.52;;;2.90;;
76640;SDS011;65538;50.798;6.064;2023-11-19T09:18:57;17.95;;;3.55;;
76640;SDS011;65538;50.798;6.064;2023-11-19T09:21:24;21.02;;;3.78;;
76640;SDS011;65538;50.798;6.064;2023-11-19T09:23:49;16.47;;;2.73;;
76640;SDS011;65538;50.798;6.064;2023-11-19T09:26:15;14.90;;;3.27;;
76640;SDS011;65538;50.798;6.064;2023-11-19T09:28:40;21.45;;;3.72;;
76640;SDS011;65538;50.798;6.064;2023-11-19T09:31:17;16.67;;;3.03;;
76640;SDS011;65538;50.798;6.064;2023-11-19T09:33:43;24.20;;;4.03;;
76640;SDS011;65538;50.798;6.064;2023-11-19T09:36:08;16.75;;;3.55;;
76640;SDS011;65538;50.798;6.064;2023-11-19T09:38:34;11.83;;;2.80;;
76640;SDS011;65538;50.798;6.064;2023-11-19T09:41:03;11.80;;;2.35;;
76640;SDS011;65538;50.798;6.064;2023-11-19T09:43:33;19.00;;;3.28;;
76640;SDS011;65538;50.798;6.064;2023-11-19T09:45:58;12.67;;;2.80;;
76640;SDS011;65538;50.798;6.064;2023-11-19T09:48:30;21.77;;;3.65;;
76640;SDS011;65538;50.798;6.064;2023-11-19T09:50:56;25.80;;;4.25;;
76640;SDS011;65538;50.798;6.064;2023-11-19T09:53:21;21.50;;;4.63;;
76640;SDS011;65538;50.798;6.064;2023-11-19T09:55:49;18.00;;;4.30;;
76640;SDS011;65538;50.798;6.064;2023-11-19T10:00:41;24.25;;;4.03;;
76640;SDS011;65538;50.798;6.064;2023-11-19T10:03:07;23.90;;;4.47;;
76640;SDS011;65538;50.798;6.064;2023-11-19T10:05:32;21.13;;;3.78;;
76640;SDS011;65538;50.798;6.064;2023-11-19T10:07:57;17.83;;;3.43;;
76640;SDS011;65538;50.798;6.064;2023-11-19T10:10:23;14.55;;;3.03;;
76640;SDS011;65538;50.798;6.064;2023-11-19T10:12:51;16.05;;;4.10;;
76640;SDS011;65538;50.798;6.064;2023-11-19T10:15:22;13.85;;;2.92;;
76640;SDS011;65538;50.798;6.064;2023-11-19T10:17:47;17.08;;;3.17;;
76640;SDS011;65538;50.798;6.064;2023-11-19T10:20:13;20.75;;;3.95;;
76640;SDS011;65538;50.798;6.064;2023-11-19T10:22:38;19.42;;;2.97;;
76640;SDS011;65538;50.798;6.064;2023-11-19T10:25:04;19.80;;;4.00;;
76640;SDS011;65538;50.798;6.064;2023-11-19T10:27:29;19.92;;;3.47;;
76640;SDS011;65538;50.798;6.064;2023-11-19T10:29:58;15.15;;;3.33;;
76640;SDS011;65538;50.798;6.064;2023-11-19T10:32:24;18.02;;;4.10;;
76640;SDS011;65538;50.798;6.064;2023-11-19T10:34:49;20.90;;;3.57;;
76640;SDS011;65538;50.798;6.064;2023-11-19T10:37:29;13.07;;;2.93;;
76640;SDS011;65538;50.798;6.064;2023-11-19T10:40:00;14.30;;;2.75;;
76640;SDS011;65538;50.798;6.064;2023-11-19T10:42:25;17.80;;;3.43;;
76640;SDS011;65538;50.798;6.064;2023-11-19T10:44:50;13.90;;;2.67;;
76640;SDS011;65538;50.798;6.064;2023-11-19T10:47:18;16.20;;;3.10;;
76640;SDS011;65538;50.798;6.064;2023-11-19T10:49:47;18.63;;;3.78;;
76640;SDS011;65538;50.798;6.064;2023-11-19T10:52:13;13.73;;;2.53;;
76640;SDS011;65538;50.798;6.064;2023-11-19T10:54:40;14.13;;;3.45;;
76640;SDS011;65538;50.798;6.064;2023-11-19T10:57:07;13.48;;;3.20;;
76640;SDS011;65538;50.798;6.064;2023-11-19T10:59:34;15.10;;;3.08;;
76640;SDS011;65538;50.798;6.064;2023-11-19T11:02:00;13.13;;;2.70;;
76640;SDS011;65538;50.798;6.064;2023-11-19T11:04:28;19.58;;;4.50;;
76640;SDS011;65538;50.798;6.064;2023-11-19T11:06:59;16.38;;;3.38;;
76640;SDS011;65538;50.798;6.064;2023-11-19T11:09:28;11.18;;;3.30;;
76640;SDS011;65538;50.798;6.064;2023-11-19T11:11:54;13.57;;;3.00;;
76640;SDS011;65538;50.798;6.064;2023-11-19T11:14:20;19.27;;;3.30;;
76640;SDS011;65538;50.798;6.064;2023-11-19T11:16:46;16.50;;;3.13;;
76640;SDS011;65538;50.798;6.064;2023-11-19T11:19:11;10.25;;;2.45;;
76640;SDS011;65538;50.798;6.064;2023-11-19T11:21:38;16.92;;;2.92;;
76640;SDS011;65538;50.798;6.064;2023-11-19T11:34:27;10.32;;;2.47;;
76640;SDS011;65538;50.798;6.064;2023-11-19T11:39:36;14.63;;;3.15;;
76640;SDS011;65538;50.798;6.064;2023-11-19T11:44:58;17.13;;;3.30;;
76640;SDS011;65538;50.798;6.064;2023-11-19T11:47:23;15.02;;;2.88;;
76640;SDS011;65538;50.798;6.064;2023-11-19T11:49:48;16.47;;;2.57;;
76640;SDS011;65538;50.798;6.064;2023-11-19T11:52:14;14.35;;;2.25;;
76640;SDS011;65538;50.798;6.064;2023-11-19T11:54:41;14.15;;;2.53;;
76640;SDS011;65538;50.798;6.064;2023-11-19T11:57:07;13.97;;;2.50;;
76640;SDS011;65538;50.798;6.064;2023-11-19T11:59:43;14.90;;;2.92;;
76640;SDS011;65538;50.798;6.064;2023-11-19T12:02:09;18.55;;;3.25;;
76640;SDS011;65538;50.798;6.064;2023-11-19T12:04:38;14.80;;;3.03;;
76640;SDS011;65538;50.798;6.064;2023-11-19T12:07:15;17.00;;;3.67;;
76640;SDS011;65538;50.798;6.064;2023-11-19T12:09:41;11.77;;;2.38;;
76640;SDS011;65538;50.798;6.064;2023-11-19T12:19:57;15.38;;;3.50;;
76640;SDS011;65538;50.798;6.064;2023-11-19T12:22:24;16.10;;;3.25;;
76640;SDS011;65538;50.798;6.064;2023-11-19T12:24:50;18.17;;;3.70;;
76640;SDS011;65538;50.798;6.064;2023-11-19T12:27:16;15.43;;;3.40;;
76640;SDS011;65538;50.798;6.064;2023-11-19T12:29:42;9.05;;;2.05;;
76640;SDS011;65538;50.798;6.064;2023-11-19T12:32:14;11.63;;;2.83;;
76640;SDS011;65538;50.798;6.064;2023-11-19T12:34:40;17.43;;;3.03;;
76640;SDS011;65538;50.798;6.064;2023-11-19T12:37:05;19.20;;;4.00;;
76640;SDS011;65538;50.798;6.064;2023-11-19T12:39:31;21.58;;;3.50;;
76640;SDS011;65538;50.798;6.064;2023-11-19T12:41:56;20.02;;;3.38;;
76640;SDS011;65538;50.798;6.064;2023-11-19T12:44:25;15.63;;;2.80;;
76640;SDS011;65538;50.798;6.064;2023-11-19T12:47:03;12.63;;;2.78;;
76640;SDS011;65538;50.798;6.064;2023-11-19T12:51:58;14.50;;;2.85;;
76640;SDS011;65538;50.798;6.064;2023-11-19T12:54:35;28.02;;;3.92;;
76640;SDS011;65538;50.798;6.064;2023-11-19T12:57:01;15.20;;;2.75;;
76640;SDS011;65538;50.798;6.064;2023-11-19T12:59:27;16.25;;;2.47;;
76640;SDS011;65538;50.798;6.064;2023-11-19T13:02:01;20.38;;;2.95;;
76640;SDS011;65538;50.798;6.064;2023-11-19T13:04:37;10.00;;;2.05;;
76640;SDS011;65538;50.798;6.064;2023-11-19T13:07:06;10.38;;;2.80;;
76640;SDS011;65538;50.798;6.064;2023-11-19T13:09:31;10.83;;;2.60;;
76640;SDS011;65538;50.798;6.064;2023-11-19T13:11:56;20.90;;;3.87;;
76640;SDS011;65538;50.798;6.064;2023-11-19T13:14:22;9.37;;;2.27;;
76640;SDS011;65538;50.798;6.064;2023-11-19T13:16:48;12.18;;;2.20;;
76640;SDS011;65538;50.798;6.064;2023-11-19T13:19:14;17.75;;;3.38;;
76640;SDS011;65538;50.798;6.064;2023-11-19T13:21:39;15.98;;;2.67;;
76640;SDS011;65538;50.798;6.064;2023-11-19T13:24:10;15.02;;;3.85;;
76640;SDS011;65538;50.798;6.064;2023-11-19T13:26:46;13.07;;;2.58;;
76640;SDS011;65538;50.798;6.064;2023-11-19T13:29:14;11.80;;;2.63;;
76640;SDS011;65538;50.798;6.064;2023-11-19T13:31:39;11.68;;;2.67;;
76640;SDS011;65538;50.798;6.064;2023-11-19T13:34:04;11.17;;;2.20;;
76640;SDS011;65538;50.798;6.064;2023-11-19T13:36:32;14.95;;;3.00;;
76640;SDS011;65538;50.798;6.064;2023-11-19T13:38:57;10.13;;;2.27;;
76640;SDS011;65538;50.798;6.064;2023-11-19T13:41:25;14.88;;;2.30;;
76640;SDS011;65538;50.798;6.064;2023-11-19T13:43:50;12.48;;;2.50;;
76640;SDS011;65538;50.798;6.064;2023-11-19T13:46:15;3.93;;;1.30;;
76640;SDS011;65538;50.798;6.064;2023-11-19T13:48:40;11.10;;;1.77;;
76640;SDS011;65538;50.798;6.064;2023-11-19T13:51:06;8.43;;;2.63;;
76640;SDS011;65538;50.798;6.064;2023-11-19T13:53:31;15.87;;;2.57;;
76640;SDS011;65538;50.798;6.064;2023-11-19T13:55:56;12.20;;;2.70;;
76640;SDS011;65538;50.798;6.064;2023-11-19T13:58:22;13.43;;;2.17;;
76640;SDS011;65538;50.798;6.064;2023-11-19T14:00:47;16.67;;;3.10;;
76640;SDS011;65538;50.798;6.064;2023-11-19T14:03:12;22.17;;;3.30;;
76640;SDS011;65538;50.798;6.064;2023-11-19T14:05:37;16.60;;;3.63;;
76640;SDS011;65538;50.798;6.064;2023-11-19T14:08:03;14.60;;;2.90;;
76640;SDS011;65538;50.798;6.064;2023-11-19T14:10:28;9.27;;;2.65;;
76640;SDS011;65538;50.798;6.064;2023-11-19T14:12:53;12.70;;;2.00;;
76640;SDS011;65538;50.798;6.064;2023-11-19T14:15:19;11.77;;;2.40;;
76640;SDS011;65538;50.798;6.064;2023-11-19T14:17:44;13.77;;;2.63;;
76640;SDS011;65538;50.798;6.064;2023-11-19T14:20:10;13.60;;;2.73;;
76640;SDS011;65538;50.798;6.064;2023-11-19T14:22:39;17.42;;;3.40;;
76640;SDS011;65538;50.798;6.064;2023-11-19T14:25:05;15.20;;;3.17;;
76640;SDS011;65538;50.798;6.064;2023-11-19T14:27:31;16.40;;;3.42;;
76640;SDS011;65538;50.798;6.064;2023-11-19T14:29:56;17.60;;;3.57;;
76640;SDS011;65538;50.798;6.064;2023-11-19T14:32:22;17.37;;;2.50;;
76640;SDS011;65538;50.798;6.064;2023-11-19T14:34:47;15.87;;;2.30;;
76640;SDS011;65538;50.798;6.064;2023-11-19T14:37:12;12.77;;;2.63;;
76640;SDS011;65538;50.798;6.064;2023-11-19T14:39:37;19.10;;;3.30;;
76640;SDS011;65538;50.798;6.064;2023-11-19T14:42:03;16.23;;;3.83;;
76640;SDS011;65538;50.798;6.064;2023-11-19T14:44:37;14.27;;;3.22;;
76640;SDS011;65538;50.798;6.064;2023-11-19T14:47:03;15.70;;;3.10;;
76640;SDS011;65538;50.798;6.064;2023-11-19T14:49:40;19.60;;;3.30;;
76640;SDS011;65538;50.798;6.064;2023-11-19T14:52:05;22.48;;;3.50;;
76640;SDS011;65538;50.798;6.064;2023-11-19T14:54:31;10.05;;;2.08;;
76640;SDS011;65538;50.798;6.064;2023-11-19T14:57:05;15.83;;;3.00;;
76640;SDS011;65538;50.798;6.064;2023-11-19T15:00:01;12.52;;;3.75;;
76640;SDS011;65538;50.798;6.064;2023-11-19T15:02:53;17.77;;;3.42;;